Time;durP1;ratioP1;P1;durP2;ratioP2;P2;SDS_P1;SDS_P2;PMS_P1;PMS_P2;Temp;Humidity;BMP_temperature;BMP_pressure;BME280_temperature;BME280_humidity;BME280_pressure;Samples;Min_cycle;Max_cycle;Signal;HPM_P1;HPM_P2
2023/02/07 00:01:28;;;;;;;;;13.00;12.00;27.30;28.50;;;;;;110359;1247;54550;-62
2023/02/07 00:03:56;;;;;;;;;13.00;12.00;27.20;28.50;;;;;;110283;1250;49133;-64
2023/02/07 00:06:26;;;;;;;;;13.33;12.00;27.20;28.50;;;;;;110249;1252;49788;-64
2023/02/07 00:08:53;;;;;;;;;15.00;14.00;27.10;28.50;;;;;;110392;1252;45521;-64
2023/02/07 00:11:22;;;;;;;;;14.00;13.00;27.00;28.60;;;;;;110302;1252;55085;-64
2023/02/07 00:13:51;;;;;;;;;15.00;12.67;26.90;28.40;;;;;;110408;1252;55007;-63
2023/02/07 00:16:19;;;;;;;;;13.00;12.00;26.90;28.40;;;;;;110202;1248;50116;-64
2023/02/07 00:18:46;;;;;;;;;14.00;12.50;26.80;28.40;;;;;;110322;1248;48863;-63
2023/02/07 00:21:18;;;;;;;;;14.33;12.00;26.70;28.40;;;;;;110354;1252;46010;-64
2023/02/07 00:23:45;;;;;;;;;15.00;12.00;26.70;28.40;;;;;;110410;1247;56474;-63
2023/02/07 00:26:13;;;;;;;;;14.50;12.00;26.70;28.50;;;;;;110132;1252;54424;-63
2023/02/07 00:28:40;;;;;;;;;14.75;13.75;26.70;28.50;;;;;;110306;1252;49296;-63
2023/02/07 00:31:16;;;;;;;;;14.00;13.00;26.80;28.70;;;;;;110381;1247;50004;-64
2023/02/07 00:33:45;;;;;;;;;13.00;11.00;26.70;28.40;;;;;;110319;1249;45727;-64
2023/02/07 00:36:16;;;;;;;;;12.25;11.25;26.80;28.40;;;;;;110182;1252;55941;-65
2023/02/07 00:38:44;;;;;;;;;15.00;14.00;26.80;28.60;;;;;;110328;1249;54490;-65
2023/02/07 00:41:17;;;;;;;;;15.33;13.00;26.90;28.60;;;;;;110325;1252;49689;-63
2023/02/07 00:43:46;;;;;;;;;16.67;14.00;26.90;28.40;;;;;;110290;1248;49442;-63
2023/02/07 00:46:13;;;;;;;;;14.00;13.00;27.00;28.50;;;;;;110257;1248;46274;-64
2023/02/07 00:48:40;;;;;;;;;11.00;10.00;27.00;28.40;;;;;;110316;1252;55621;-64
2023/02/07 00:51:09;;;;;;;;;16.00;13.00;27.10;28.40;;;;;;110404;1247;53961;-64
2023/02/07 00:53:36;;;;;;;;;12.00;11.00;27.10;28.40;;;;;;110226;1249;49614;-62
2023/02/07 00:56:04;;;;;;;;;13.33;12.33;27.20;28.60;;;;;;110282;1252;49866;-65
2023/02/07 00:58:31;;;;;;;;;13.50;10.50;27.30;28.80;;;;;;110487;1252;45400;-63
2023/02/07 01:00:58;;;;;;;;;15.67;14.33;27.30;28.50;;;;;;110449;1248;55014;-63
2023/02/07 01:03:25;;;;;;;;;13.00;10.67;27.40;28.40;;;;;;110438;1252;54398;-64
2023/02/07 01:05:52;;;;;;;;;13.75;12.75;27.40;28.30;;;;;;110320;1247;48950;-66
2023/02/07 01:08:19;;;;;;;;;16.00;14.50;27.50;28.30;;;;;;110456;1248;49436;-64
2023/02/07 01:10:47;;;;;;;;;11.75;10.75;27.60;28.50;;;;;;110492;1249;45492;-64
2023/02/07 01:13:15;;;;;;;;;11.00;10.00;27.60;28.20;;;;;;110498;1252;56010;-64
2023/02/07 01:15:44;;;;;;;;;13.50;12.50;27.70;28.30;;;;;;110335;1252;54407;-64
2023/02/07 01:18:12;;;;;;;;;11.50;10.50;27.70;28.20;;;;;;110381;1248;49527;-63
2023/02/07 01:20:40;;;;;;;;;13.00;12.00;27.80;28.20;;;;;;110428;1252;50205;-64
2023/02/07 01:23:06;;;;;;;;;14.33;13.00;27.80;28.20;;;;;;110411;1252;46126;-63
2023/02/07 01:25:33;;;;;;;;;15.00;13.50;27.90;28.20;;;;;;110367;1248;56264;-64
2023/02/07 01:28:00;;;;;;;;;15.00;13.00;27.90;28.40;;;;;;110374;1252;54832;-64
2023/02/07 01:30:27;;;;;;;;;12.50;11.00;27.90;28.20;;;;;;110431;1251;49850;-64
2023/02/07 01:32:54;;;;;;;;;14.00;13.00;27.90;28.10;;;;;;110377;1252;48986;-64
2023/02/07 01:35:21;;;;;;;;;13.00;12.00;28.00;28.60;;;;;;110225;1252;46032;-64
2023/02/07 01:37:48;;;;;;;;;12.00;11.00;28.00;28.10;;;;;;110443;1248;55313;-65
2023/02/07 01:40:15;;;;;;;;;15.00;12.50;27.90;28.10;;;;;;110407;1247;54367;-63
2023/02/07 01:42:42;;;;;;;;;15.67;14.67;27.90;28.00;;;;;;110370;1252;49563;-64
2023/02/07 01:45:33;;;;;;;;;13.00;12.00;27.90;28.00;;;;;;110211;1252;49619;-65
2023/02/07 01:48:07;;;;;;;;;15.67;14.00;27.90;28.20;;;;;;110393;1248;45400;-64
2023/02/07 01:50:35;;;;;;;;;12.50;11.00;27.80;28.10;;;;;;110297;1251;55579;-64
2023/02/07 01:53:05;;;;;;;;;12.00;11.00;27.80;28.00;;;;;;110383;1252;53806;-64
2023/02/07 01:55:35;;;;;;;;;17.50;15.00;27.80;28.00;;;;;;110235;1248;49149;-64
2023/02/07 01:58:04;;;;;;;;;12.00;11.00;27.70;28.00;;;;;;110338;1253;49640;-64
2023/02/07 02:00:32;;;;;;;;;13.00;12.00;27.70;27.90;;;;;;110432;1252;45484;-65
2023/02/07 02:02:59;;;;;;;;;14.75;12.25;27.60;27.70;;;;;;110367;1248;55586;-65
2023/02/07 02:05:28;;;;;;;;;15.00;13.00;27.50;27.70;;;;;;110275;1248;54094;-64
2023/02/07 02:07:55;;;;;;;;;13.50;11.50;27.50;27.80;;;;;;110291;1248;49647;-63
2023/02/07 02:10:29;;;;;;;;;12.00;10.50;27.40;27.70;;;;;;110410;1252;49279;-64
2023/02/07 02:13:26;;;;;;;;;12.50;11.00;27.30;27.90;;;;;;110263;1253;45997;-64
2023/02/07 02:16:08;;;;;;;;;14.00;12.50;27.20;27.70;;;;;;110070;1248;56835;-64
2023/02/07 02:19:14;;;;;;;;;14.25;13.00;27.20;27.70;;;;;;110238;1253;53463;-63
2023/02/07 02:22:14;;;;;;;;;13.00;12.00;27.10;27.70;;;;;;110359;1248;50085;-63
2023/02/07 02:24:58;;;;;;;;;12.00;10.25;27.10;27.50;;;;;;110216;1248;49626;-63
2023/02/07 02:27:48;;;;;;;;;16.00;11.00;27.00;27.50;;;;;;110380;1252;46420;-63
2023/02/07 02:30:31;;;;;;;;;16.33;13.00;26.90;27.50;;;;;;110173;1248;55687;-64
2023/02/07 02:33:07;;;;;;;;;13.33;12.33;26.80;27.50;;;;;;110413;1252;54171;-63
2023/02/07 02:35:43;;;;;;;;;12.00;10.50;26.70;27.70;;;;;;110220;1248;49575;-64
2023/02/07 02:38:47;;;;;;;;;11.50;10.00;26.60;27.50;;;;;;110403;1252;48984;-63
2023/02/07 02:41:18;;;;;;;;;11.25;10.00;26.60;27.50;;;;;;110175;1247;45660;-63
2023/02/07 02:44:00;;;;;;;;;12.67;11.00;26.60;27.50;;;;;;110370;1249;56088;-62
2023/02/07 02:46:30;;;;;;;;;14.00;11.75;26.60;28.00;;;;;;110166;1249;53871;-62
2023/02/07 02:48:58;;;;;;;;;16.25;11.50;26.70;27.60;;;;;;110171;1252;50153;-62
2023/02/07 02:51:28;;;;;;;;;13.00;12.00;26.70;27.60;;;;;;110315;1249;50240;-64
2023/02/07 02:53:57;;;;;;;;;13.50;12.00;26.80;27.60;;;;;;110419;1252;45331;-64
2023/02/07 02:56:37;;;;;;;;;14.00;12.50;26.80;27.60;;;;;;110244;1248;56332;-65
2023/02/07 02:59:44;;;;;;;;;13.00;12.00;26.80;27.60;;;;;;110342;1247;54364;-64
2023/02/07 03:02:22;;;;;;;;;11.67;10.67;26.90;27.60;;;;;;110386;1250;49730;-65
2023/02/07 03:05:17;;;;;;;;;13.50;11.25;27.00;27.70;;;;;;110226;1248;49352;-64
2023/02/07 03:08:04;;;;;;;;;14.00;11.00;27.00;27.70;;;;;;110411;1252;46115;-64
2023/02/07 03:10:52;;;;;;;;;17.00;12.00;27.10;27.60;;;;;;110377;1252;56099;-65
2023/02/07 03:13:28;;;;;;;;;12.00;11.00;27.10;27.60;;;;;;110314;1247;53964;-65
2023/02/07 03:16:12;;;;;;;;;15.00;13.50;27.20;27.70;;;;;;110214;1248;50206;-65
2023/02/07 03:18:42;;;;;;;;;16.00;13.00;27.20;27.60;;;;;;110368;1252;49372;-64
2023/02/07 03:21:33;;;;;;;;;12.00;10.50;27.30;27.60;;;;;;110384;1248;45232;-64
2023/02/07 03:24:12;;;;;;;;;11.00;9.50;27.40;27.60;;;;;;110290;1250;55975;-64
2023/02/07 03:26:42;;;;;;;;;13.00;12.00;27.50;27.60;;;;;;110546;1248;55178;-64
2023/02/07 03:29:09;;;;;;;;;11.50;10.50;27.50;27.60;;;;;;110367;1247;49035;-65
2023/02/07 03:31:40;;;;;;;;;12.50;11.00;27.60;27.70;;;;;;110274;1252;48934;-64
2023/02/07 03:34:14;;;;;;;;;13.00;11.00;27.70;27.70;;;;;;110361;1248;45816;-64
2023/02/07 03:36:49;;;;;;;;;12.33;11.33;27.70;27.60;;;;;;110086;1252;55228;-64
2023/02/07 03:39:16;;;;;;;;;11.00;9.00;27.80;27.70;;;;;;110375;1252;53572;-63
2023/02/07 03:41:48;;;;;;;;;13.00;12.00;27.80;27.20;;;;;;110181;1249;50796;-65
2023/02/07 03:44:16;;;;;;;;;13.00;11.67;27.90;27.60;;;;;;110183;1248;49622;-65
2023/02/07 03:46:43;;;;;;;;;13.00;11.00;27.90;27.60;;;;;;110263;1248;46752;-64
2023/02/07 03:49:10;;;;;;;;;11.00;10.00;27.90;27.60;;;;;;110432;1247;56682;-64
2023/02/07 03:51:37;;;;;;;;;12.00;11.00;27.90;27.60;;;;;;109848;1248;731669;-64
2023/02/07 03:54:04;;;;;;;;;12.00;11.00;27.90;27.60;;;;;;110350;1250;49423;-64
2023/02/07 03:56:31;;;;;;;;;13.00;12.00;27.90;27.60;;;;;;110425;1252;49798;-63
2023/02/07 03:58:58;;;;;;;;;15.00;14.00;27.90;27.60;;;;;;110450;1248;46824;-64
2023/02/07 04:01:26;;;;;;;;;13.00;12.00;27.80;27.50;;;;;;110369;1248;55765;-65
2023/02/07 04:03:53;;;;;;;;;13.00;12.00;27.80;27.60;;;;;;110376;1252;54032;-65
2023/02/07 04:06:20;;;;;;;;;11.75;10.75;27.80;27.50;;;;;;110258;1252;49068;-66
2023/02/07 04:08:47;;;;;;;;;12.50;11.50;27.70;27.50;;;;;;110391;1252;49137;-65
2023/02/07 04:11:14;;;;;;;;;13.00;11.25;27.70;27.40;;;;;;110349;1248;46008;-65
2023/02/07 04:13:41;;;;;;;;;13.00;12.00;27.60;27.40;;;;;;110308;1252;55663;-64
2023/02/07 04:16:08;;;;;;;;;13.00;12.00;27.60;27.50;;;;;;110175;1247;54441;-64
2023/02/07 04:18:35;;;;;;;;;12.00;11.00;27.50;27.40;;;;;;110359;1252;49441;-65
2023/02/07 04:21:04;;;;;;;;;16.00;12.67;27.50;27.50;;;;;;110365;1248;49330;-66
2023/02/07 04:23:32;;;;;;;;;11.00;10.00;27.40;27.50;;;;;;110439;1252;45459;-67
2023/02/07 04:25:59;;;;;;;;;13.00;11.00;27.30;27.40;;;;;;110120;1251;55787;-65
2023/02/07 04:28:26;;;;;;;;;15.67;12.67;27.30;27.40;;;;;;110418;1252;55115;-65
2023/02/07 04:30:53;;;;;;;;;11.33;10.00;27.20;27.30;;;;;;110423;1248;50150;-64
2023/02/07 04:33:21;;;;;;;;;13.00;11.75;27.10;27.30;;;;;;110379;1252;49422;-64
2023/02/07 04:35:59;;;;;;;;;14.00;11.00;27.00;26.80;;;;;;110311;1248;45907;-64
2023/02/07 04:38:27;;;;;;;;;13.00;12.00;27.00;27.30;;;;;;110483;1248;56418;-64
2023/02/07 04:40:59;;;;;;;;;12.50;11.00;26.90;27.20;;;;;;110398;1248;53896;-67
2023/02/07 04:43:26;;;;;;;;;12.00;11.00;26.80;27.10;;;;;;110378;1250;49110;-67
2023/02/07 04:45:53;;;;;;;;;14.00;12.00;26.70;27.10;;;;;;110291;1248;50193;-65
2023/02/07 04:48:21;;;;;;;;;14.67;11.00;26.60;27.10;;;;;;110491;1252;45912;-64
2023/02/07 04:50:48;;;;;;;;;14.00;12.00;26.60;27.30;;;;;;110394;1251;55178;-66
2023/02/07 04:53:15;;;;;;;;;14.67;13.33;26.50;27.10;;;;;;110511;1248;53953;-65
2023/02/07 04:55:42;;;;;;;;;16.00;14.00;26.50;27.10;;;;;;110281;1252;48889;-64
2023/02/07 04:58:09;;;;;;;;;13.00;12.00;26.40;27.10;;;;;;110511;1252;49054;-64
2023/02/07 05:00:36;;;;;;;;;11.50;8.75;26.40;27.30;;;;;;110476;1252;45158;-62
2023/02/07 05:03:03;;;;;;;;;12.00;11.00;26.40;27.30;;;;;;110439;1252;55513;-65
2023/02/07 05:05:30;;;;;;;;;12.67;11.67;26.50;27.10;;;;;;110263;1248;54246;-64
2023/02/07 05:07:57;;;;;;;;;12.00;11.00;26.50;27.10;;;;;;110473;1252;50583;-63
2023/02/07 05:10:24;;;;;;;;;11.75;10.25;26.50;27.20;;;;;;110444;1252;49568;-62
2023/02/07 05:12:51;;;;;;;;;15.33;13.00;26.50;27.40;;;;;;110496;1248;45936;-63
2023/02/07 05:15:17;;;;;;;;;13.00;11.00;26.50;27.30;;;;;;110285;1248;56057;-61
2023/02/07 05:17:44;;;;;;;;;11.50;10.50;26.50;27.50;;;;;;110360;1248;53911;-63
2023/02/07 05:20:12;;;;;;;;;12.00;9.00;26.50;27.30;;;;;;110394;1248;49526;-61
2023/02/07 05:22:38;;;;;;;;;15.00;12.00;26.50;27.30;;;;;;110482;1248;49917;-62
2023/02/07 05:25:06;;;;;;;;;16.00;13.67;26.50;27.30;;;;;;110240;1251;45242;-62
2023/02/07 05:27:33;;;;;;;;;13.00;12.00;26.50;27.30;;;;;;110499;1252;55260;-63
2023/02/07 05:30:00;;;;;;;;;11.00;10.00;26.50;27.30;;;;;;110492;1248;53981;-62
2023/02/07 05:35:13;;;;;;;;;14.00;11.75;26.60;26.90;;;;;;110232;1252;49006;-61
2023/02/07 05:37:40;;;;;;;;;12.50;11.00;26.70;27.60;;;;;;110480;1252;46133;-60
2023/02/07 05:40:08;;;;;;;;;17.00;13.67;26.70;27.50;;;;;;110411;1248;55546;-60
2023/02/07 05:42:35;;;;;;;;;27.00;23.00;26.80;27.60;;;;;;110398;1252;53800;-62
2023/02/07 05:45:02;;;;;;;;;35.00;24.00;26.80;30.50;;;;;;110280;1252;49762;-61
2023/02/07 05:47:29;;;;;;;;;29.00;19.00;26.80;31.20;;;;;;110417;1247;49521;-60
2023/02/07 05:49:56;;;;;;;;;22.00;17.50;26.90;31.00;;;;;;110526;1252;45819;-61
2023/02/07 05:52:23;;;;;;;;;27.75;21.00;26.90;31.30;;;;;;110420;1247;56702;-60
2023/02/07 05:54:50;;;;;;;;;28.00;18.00;26.90;31.00;;;;;;110209;1252;53659;-64
2023/02/07 05:57:18;;;;;;;;;20.50;19.25;26.90;31.20;;;;;;110422;1248;49815;-66
2023/02/07 05:59:44;;;;;;;;;37.00;28.00;26.90;31.20;;;;;;110549;1247;49704;-64
2023/02/07 06:02:11;;;;;;;;;29.00;22.00;27.00;32.10;;;;;;112203;1251;45894;-64
2023/02/07 06:04:38;;;;;;;;;24.50;21.50;27.00;31.60;;;;;;110414;1248;56125;-64
2023/02/07 06:07:05;;;;;;;;;30.75;22.50;27.20;31.20;;;;;;110410;1252;54190;-64
2023/02/07 06:09:33;;;;;;;;;31.67;22.67;27.30;32.00;;;;;;110430;1249;49136;-64
2023/02/07 06:12:00;;;;;;;;;30.00;23.00;27.20;32.40;;;;;;110413;1248;50287;-62
2023/02/07 06:14:27;;;;;;;;;24.00;19.50;27.20;32.00;;;;;;110411;1252;45501;-63
2023/02/07 06:16:54;;;;;;;;;21.50;19.00;27.10;32.10;;;;;;110481;1252;55143;-64
2023/02/07 06:19:21;;;;;;;;;25.00;20.67;27.10;31.90;;;;;;110510;1248;53746;-64
2023/02/07 06:21:48;;;;;;;;;31.00;22.00;27.00;31.90;;;;;;110412;1248;49482;-63
2023/02/07 06:24:15;;;;;;;;;28.00;22.00;26.90;31.80;;;;;;110430;1252;49481;-63
2023/02/07 06:26:43;;;;;;;;;25.00;21.50;26.90;31.80;;;;;;110419;1248;46400;-64
2023/02/07 06:29:10;;;;;;;;;25.50;18.00;26.80;31.80;;;;;;110215;1247;55957;-64
2023/02/07 06:31:37;;;;;;;;;27.50;21.00;26.80;31.80;;;;;;110405;1252;53243;-66
2023/02/07 06:34:04;;;;;;;;;25.00;19.50;26.70;32.10;;;;;;110465;1247;50397;-65
2023/02/07 06:36:30;;;;;;;;;24.00;20.00;26.60;31.80;;;;;;110405;1252;49670;-64
2023/02/07 06:38:58;;;;;;;;;17.50;16.00;26.60;31.80;;;;;;110363;1252;45636;-65
2023/02/07 06:41:25;;;;;;;;;23.25;21.00;26.50;32.30;;;;;;110383;1252;56593;-65
2023/02/07 06:43:52;;;;;;;;;28.00;22.00;26.50;31.70;;;;;;110409;1248;53728;-64
2023/02/07 06:46:19;;;;;;;;;29.00;22.00;26.40;31.40;;;;;;110418;1249;48894;-64
2023/02/07 06:48:45;;;;;;;;;28.33;21.67;26.30;31.20;;;;;;110352;1248;49596;-64
2023/02/07 06:51:12;;;;;;;;;24.33;19.67;26.20;31.10;;;;;;110345;1252;46349;-65
2023/02/07 06:53:39;;;;;;;;;20.50;19.00;26.20;30.60;;;;;;110418;1252;55492;-63
2023/02/07 06:56:06;;;;;;;;;25.33;19.00;26.10;30.30;;;;;;110362;1252;53343;-64
2023/02/07 06:58:34;;;;;;;;;22.00;19.00;26.00;30.50;;;;;;110387;1252;49362;-64
2023/02/07 07:01:02;;;;;;;;;23.00;19.50;25.90;29.90;;;;;;110345;1252;49711;-64
2023/02/07 07:03:29;;;;;;;;;24.00;20.50;25.90;29.90;;;;;;110350;1248;45729;-64
2023/02/07 07:05:57;;;;;;;;;21.00;19.00;25.80;29.80;;;;;;110393;1248;55365;-64
2023/02/07 07:08:25;;;;;;;;;21.50;20.50;25.70;29.80;;;;;;110432;1250;54192;-64
2023/02/07 07:10:53;;;;;;;;;23.00;20.00;25.70;29.80;;;;;;110406;1252;49907;-66
2023/02/07 07:13:20;;;;;;;;;23.00;19.50;25.60;29.80;;;;;;110260;1247;49463;-64
2023/02/07 07:15:47;;;;;;;;;24.50;20.50;25.50;29.80;;;;;;110436;1247;45405;-66
2023/02/07 07:18:15;;;;;;;;;19.50;17.50;25.40;29.80;;;;;;110501;1248;55184;-64
2023/02/07 07:20:41;;;;;;;;;19.00;16.50;25.40;29.90;;;;;;110486;1252;54029;-64
2023/02/07 07:23:08;;;;;;;;;21.67;19.67;25.30;29.90;;;;;;110347;1249;49689;-64
2023/02/07 07:25:35;;;;;;;;;22.67;17.67;25.30;30.00;;;;;;110576;1252;50264;-64
2023/02/07 07:28:02;;;;;;;;;18.50;17.00;25.20;30.10;;;;;;110454;1248;46156;-64
2023/02/07 07:30:30;;;;;;;;;21.25;19.25;25.10;30.00;;;;;;110510;1252;55669;-63
2023/02/07 07:32:56;;;;;;;;;22.00;21.00;25.00;30.00;;;;;;110363;1253;54506;-63
2023/02/07 07:35:23;;;;;;;;;25.00;22.00;24.90;30.10;;;;;;110456;1248;49044;-64
2023/02/07 07:37:50;;;;;;;;;22.00;19.00;24.90;30.10;;;;;;110424;1248;50379;-65
2023/02/07 07:40:17;;;;;;;;;30.25;22.75;24.80;30.00;;;;;;110410;1249;46277;-64
2023/02/07 07:42:44;;;;;;;;;22.50;19.00;24.70;30.00;;;;;;110406;1252;55271;-64
2023/02/07 07:45:12;;;;;;;;;21.33;20.00;24.60;30.40;;;;;;110379;1247;53631;-64
2023/02/07 07:47:39;;;;;;;;;23.50;21.00;24.50;30.30;;;;;;110450;1249;49707;-64
2023/02/07 07:50:07;;;;;;;;;23.75;20.50;24.40;30.40;;;;;;110407;1249;49861;-64
2023/02/07 07:52:34;;;;;;;;;19.75;17.00;24.20;30.60;;;;;;110290;1248;45403;-63
2023/02/07 07:55:01;;;;;;;;;23.00;21.00;24.10;30.60;;;;;;110391;1252;56693;-64
2023/02/07 07:57:28;;;;;;;;;22.50;20.00;24.00;30.80;;;;;;110175;1254;54131;-64
2023/02/07 07:59:55;;;;;;;;;24.00;22.00;23.90;31.30;;;;;;110227;1249;49783;-63
2023/02/07 08:02:23;;;;;;;;;24.00;21.00;23.80;31.10;;;;;;110426;1252;49565;-64
2023/02/07 08:04:50;;;;;;;;;23.00;20.00;23.80;31.50;;;;;;110413;1247;46262;-63
2023/02/07 08:07:17;;;;;;;;;23.00;18.33;23.60;31.50;;;;;;110369;1252;55741;-64
2023/02/07 08:09:44;;;;;;;;;22.50;21.00;23.60;31.90;;;;;;110393;1248;54232;-64
2023/02/07 08:12:11;;;;;;;;;22.00;19.00;23.50;32.30;;;;;;110458;1252;49417;-65
2023/02/07 08:14:38;;;;;;;;;22.00;18.25;23.40;32.10;;;;;;110349;1252;50290;-64
2023/02/07 08:17:05;;;;;;;;;19.00;18.00;23.40;32.00;;;;;;110371;1252;46580;-63
2023/02/07 08:19:32;;;;;;;;;19.50;18.00;23.30;32.10;;;;;;110370;1248;56255;-64
2023/02/07 08:21:59;;;;;;;;;23.00;21.00;23.30;32.30;;;;;;110493;1250;54284;-64
2023/02/07 08:24:27;;;;;;;;;21.00;19.00;23.20;32.40;;;;;;110383;1248;49563;-64
2023/02/07 08:26:54;;;;;;;;;23.50;19.00;23.10;32.70;;;;;;110366;1252;49753;-64
2023/02/07 08:29:21;;;;;;;;;25.00;24.00;23.10;32.80;;;;;;110452;1252;45452;-65
2023/02/07 08:31:48;;;;;;;;;19.00;17.67;23.00;33.10;;;;;;110371;1252;55522;-64
2023/02/07 08:34:17;;;;;;;;;23.33;21.33;23.00;33.00;;;;;;110320;1250;53982;-63
2023/02/07 08:36:44;;;;;;;;;23.00;21.00;22.90;33.50;;;;;;110264;1252;49774;-64
2023/02/07 08:39:11;;;;;;;;;21.00;20.00;22.90;32.90;;;;;;110319;1248;49902;-62
2023/02/07 08:41:38;;;;;;;;;23.33;21.67;22.80;33.10;;;;;;110388;1248;45701;-61
2023/02/07 08:44:05;;;;;;;;;23.67;21.00;22.70;32.60;;;;;;110346;1248;56770;-61
2023/02/07 08:46:32;;;;;;;;;22.00;19.00;22.70;32.50;;;;;;110202;1248;54758;-61
2023/02/07 08:48:59;;;;;;;;;25.00;21.00;22.60;32.30;;;;;;110363;1248;50505;-63
2023/02/07 08:51:26;;;;;;;;;24.50;21.00;22.60;33.40;;;;;;110168;1249;48916;-66
2023/02/07 08:53:53;;;;;;;;;25.00;22.50;22.60;33.90;;;;;;110432;1248;45771;-64
2023/02/07 08:56:20;;;;;;;;;26.00;19.00;22.60;34.30;;;;;;110106;1252;56292;-65
2023/02/07 08:58:47;;;;;;;;;21.00;17.00;22.60;34.70;;;;;;110317;1252;53668;-67
2023/02/07 09:01:14;;;;;;;;;22.00;19.50;22.60;35.30;;;;;;110297;1247;49050;-65
2023/02/07 09:03:41;;;;;;;;;20.00;18.00;22.60;34.90;;;;;;110332;1247;50269;-67
2023/02/07 09:06:09;;;;;;;;;23.00;18.00;22.60;34.80;;;;;;110843;1248;45216;-66
2023/02/07 09:08:36;;;;;;;;;19.50;16.00;22.70;35.10;;;;;;110261;1252;56157;-70
2023/02/07 09:11:03;;;;;;;;;22.00;20.67;22.80;35.00;;;;;;110491;1248;54558;-64
2023/02/07 09:13:30;;;;;;;;;22.00;20.50;22.80;35.00;;;;;;110230;1252;50266;-62
2023/02/07 09:15:58;;;;;;;;;21.00;19.00;22.80;34.50;;;;;;110005;1249;50376;-63
2023/02/07 09:18:25;;;;;;;;;18.75;16.75;22.90;34.50;;;;;;110364;1248;46394;-62
2023/02/07 09:20:52;;;;;;;;;20.33;18.67;22.90;34.40;;;;;;110324;1252;55353;-61
2023/02/07 09:23:19;;;;;;;;;21.00;18.00;23.00;34.50;;;;;;110344;1248;53798;-61
2023/02/07 09:25:49;;;;;;;;;17.00;15.67;23.00;34.60;;;;;;110210;1248;50122;-63
2023/02/07 09:28:16;;;;;;;;;21.33;18.67;23.10;34.30;;;;;;110400;1248;50434;-64
2023/02/07 09:30:45;;;;;;;;;21.50;20.00;23.10;34.00;;;;;;110409;1248;45459;-65
2023/02/07 09:33:13;;;;;;;;;23.33;20.67;23.10;33.40;;;;;;110285;1252;55851;-64
2023/02/07 09:35:45;;;;;;;;;23.00;21.50;23.10;33.20;;;;;;110319;1252;53816;-65
2023/02/07 09:38:15;;;;;;;;;19.00;18.00;23.00;33.10;;;;;;110439;1248;50333;-63
2023/02/07 09:40:43;;;;;;;;;21.00;19.00;23.00;32.90;;;;;;110419;1248;49673;-65
2023/02/07 09:43:28;;;;;;;;;19.00;16.33;23.00;32.80;;;;;;110439;1252;46058;-64
2023/02/07 09:45:59;;;;;;;;;22.00;17.00;22.90;32.70;;;;;;110214;1248;56435;-65
2023/02/07 09:48:45;;;;;;;;;19.00;14.50;22.90;32.60;;;;;;110442;1252;53473;-64
2023/02/07 09:51:18;;;;;;;;;25.00;21.00;22.90;32.70;;;;;;110415;1252;49220;-64
2023/02/07 09:53:53;;;;;;;;;20.00;16.00;22.90;32.40;;;;;;110372;1252;49660;-64
2023/02/07 09:56:22;;;;;;;;;19.33;18.00;22.80;32.10;;;;;;110478;1248;45635;-64
2023/02/07 09:59:01;;;;;;;;;21.00;18.00;22.90;32.30;;;;;;110446;1252;55456;-63
2023/02/07 10:01:33;;;;;;;;;18.75;17.00;22.90;32.00;;;;;;110475;1248;53745;-64
2023/02/07 10:04:26;;;;;;;;;20.00;18.50;22.90;31.50;;;;;;110493;1248;49299;-64
2023/02/07 10:06:56;;;;;;;;;21.00;18.00;22.90;32.10;;;;;;110414;1248;50580;-65
2023/02/07 10:09:32;;;;;;;;;17.75;16.00;22.90;31.80;;;;;;110434;1248;45180;-64
2023/02/07 10:12:11;;;;;;;;;21.00;19.00;22.80;31.70;;;;;;110417;1247;55513;-64
2023/02/07 10:15:16;;;;;;;;;16.25;15.00;22.80;31.90;;;;;;110311;1247;54166;-64
2023/02/07 10:18:17;;;;;;;;;25.00;20.67;22.80;31.80;;;;;;109967;1249;48990;-64
2023/02/07 10:20:50;;;;;;;;;19.00;16.00;22.80;31.40;;;;;;110367;1252;49663;-65
2023/02/07 10:23:28;;;;;;;;;18.50;16.50;22.80;31.40;;;;;;110430;1252;45975;-63
2023/02/07 10:26:17;;;;;;;;;21.00;18.00;22.80;31.90;;;;;;110213;1248;55337;-62
2023/02/07 10:28:50;;;;;;;;;19.33;18.00;22.90;32.00;;;;;;110400;1252;53380;-62
2023/02/07 10:31:18;;;;;;;;;20.75;18.25;22.90;32.50;;;;;;110433;1252;50057;-62
2023/02/07 10:33:54;;;;;;;;;21.00;19.00;22.90;31.80;;;;;;110173;1249;50557;-63
2023/02/07 10:36:24;;;;;;;;;21.00;19.00;22.90;31.50;;;;;;110408;1248;45917;-62
2023/02/07 10:39:00;;;;;;;;;22.25;18.50;22.90;31.20;;;;;;110431;1252;55037;-67
2023/02/07 10:41:38;;;;;;;;;24.50;23.00;23.00;31.70;;;;;;110388;1252;53638;-62
2023/02/07 10:44:09;;;;;;;;;27.50;21.50;23.00;31.40;;;;;;110343;1252;49770;-61
2023/02/07 10:46:36;;;;;;;;;44.00;33.50;23.00;31.10;;;;;;110230;1248;49334;-62
2023/02/07 10:49:03;;;;;;;;;53.00;34.00;23.00;30.90;;;;;;110352;1254;45195;-60
2023/02/07 10:51:37;;;;;;;;;38.33;31.00;23.00;30.90;;;;;;110437;1248;55826;-62
2023/02/07 10:54:08;;;;;;;;;44.50;32.00;23.00;30.80;;;;;;110360;1248;54964;-60
2023/02/07 10:56:43;;;;;;;;;35.50;29.50;23.00;30.30;;;;;;110095;1249;49942;-61
2023/02/07 10:59:45;;;;;;;;;40.00;29.00;23.00;30.00;;;;;;110130;1252;49539;-61
2023/02/07 11:02:27;;;;;;;;;33.00;28.00;23.10;30.70;;;;;;110090;1252;45428;-62
2023/02/07 11:04:59;;;;;;;;;28.75;27.50;23.10;29.60;;;;;;110416;1248;55156;-61
2023/02/07 11:07:26;;;;;;;;;30.50;26.00;23.10;29.70;;;;;;110340;1247;54217;-62
2023/02/07 11:10:18;;;;;;;;;27.00;24.00;23.10;29.60;;;;;;110343;1248;50057;-61
2023/02/07 11:12:47;;;;;;;;;29.00;25.33;23.10;29.70;;;;;;110384;1247;49187;-61
2023/02/07 11:15:18;;;;;;;;;25.33;23.33;23.10;29.80;;;;;;110369;1248;46481;-61
2023/02/07 11:17:50;;;;;;;;;28.00;23.00;23.10;29.60;;;;;;110355;1252;55151;-62
2023/02/07 11:20:25;;;;;;;;;29.50;23.50;23.20;29.60;;;;;;110206;1249;53819;-60
2023/02/07 11:22:56;;;;;;;;;22.50;20.00;23.20;29.30;;;;;;110285;1249;49423;-61
2023/02/07 11:25:34;;;;;;;;;22.00;19.33;23.20;29.20;;;;;;110411;1252;50370;-61
2023/02/07 11:28:01;;;;;;;;;26.00;24.00;23.20;29.20;;;;;;110459;1252;45995;-62
2023/02/07 11:30:29;;;;;;;;;28.67;25.00;23.20;29.10;;;;;;110253;1250;55937;-61
2023/02/07 11:33:02;;;;;;;;;25.00;23.00;23.20;29.50;;;;;;110226;1252;54127;-61
2023/02/07 11:35:29;;;;;;;;;19.00;18.00;23.20;29.90;;;;;;110383;1247;48998;-61
2023/02/07 11:38:11;;;;;;;;;23.33;20.00;23.20;30.00;;;;;;110169;1252;49803;-61
2023/02/07 11:40:40;;;;;;;;;24.00;21.00;23.20;30.00;;;;;;110313;1248;45384;-62
2023/02/07 11:43:10;;;;;;;;;25.00;19.50;23.20;30.00;;;;;;110401;1249;56230;-61
2023/02/07 11:45:41;;;;;;;;;20.25;17.25;23.30;30.10;;;;;;110374;1252;54455;-62
2023/02/07 11:48:17;;;;;;;;;23.00;19.00;23.30;30.20;;;;;;110407;1252;49428;-61
2023/02/07 11:50:47;;;;;;;;;29.00;24.00;23.30;30.00;;;;;;110350;1252;50799;-62
2023/02/07 11:53:23;;;;;;;;;23.00;21.50;23.30;30.00;;;;;;110410;1248;45221;-62
2023/02/07 11:55:53;;;;;;;;;23.33;20.33;23.30;30.30;;;;;;110487;1248;55554;-61
2023/02/07 11:58:35;;;;;;;;;29.00;22.00;23.30;30.20;;;;;;110409;1248;53586;-62
2023/02/07 12:01:04;;;;;;;;;26.00;21.67;23.30;30.00;;;;;;110441;1252;49341;-61
2023/02/07 12:03:39;;;;;;;;;25.00;22.00;23.30;30.40;;;;;;110391;1250;50013;-63
2023/02/07 12:06:09;;;;;;;;;27.50;22.75;23.30;29.70;;;;;;110407;1252;45962;-63
2023/02/07 12:08:37;;;;;;;;;23.50;20.50;23.30;30.00;;;;;;110454;1252;56506;-62
2023/02/07 12:11:13;;;;;;;;;26.00;23.50;23.40;30.00;;;;;;110238;1253;53759;-61
2023/02/07 12:13:51;;;;;;;;;22.00;20.50;23.30;30.20;;;;;;110396;1252;50185;-62
2023/02/07 12:16:55;;;;;;;;;25.00;23.00;23.30;29.70;;;;;;110379;1252;49214;-61
2023/02/07 12:19:33;;;;;;;;;24.00;22.33;23.30;29.90;;;;;;109874;1253;45247;-61
2023/02/07 12:22:12;;;;;;;;;28.33;22.67;23.30;29.40;;;;;;110384;1250;56708;-61
2023/02/07 12:24:44;;;;;;;;;24.00;21.00;23.30;29.30;;;;;;110262;1253;53997;-61
2023/02/07 12:27:14;;;;;;;;;25.00;22.00;23.30;29.10;;;;;;110350;1252;48876;-61
2023/02/07 12:30:19;;;;;;;;;23.33;20.00;23.30;29.10;;;;;;110378;1252;49343;-61
2023/02/07 12:33:11;;;;;;;;;28.00;25.00;23.20;28.60;;;;;;110415;1248;45596;-62
2023/02/07 12:35:57;;;;;;;;;25.00;22.67;23.10;28.60;;;;;;110370;1248;55796;-62
2023/02/07 12:38:31;;;;;;;;;24.00;22.00;23.00;28.60;;;;;;110374;1247;53367;-61
2023/02/07 12:41:25;;;;;;;;;26.00;22.00;23.00;28.50;;;;;;110394;1252;49486;-60